Time;durP1;ratioP1;P1;durP2;ratioP2;P2;SDS_P1;SDS_P2;PMS_P1;PMS_P2;Temp;Humidity;BMP_temperature;BMP_pressure;BME280_temperature;BME280_humidity;BME280_pressure;Samples;Min_cycle;Max_cycle;Signal;HPM_P1;HPM_P2
2022/04/21 00:00:19;;;;;;;18.85;10.65;;;;;;;10.67;67.71;101411.38;5034018;28;20369;-30
2022/04/21 00:02:44;;;;;;;16.88;10.23;;;;;;;10.66;67.71;101417.72;5034468;28;20138;-28
2022/04/21 00:05:11;;;;;;;23.00;10.82;;;;;;;10.64;67.62;101417.09;5036329;28;20060;-28
2022/04/21 00:07:36;;;;;;;20.30;10.50;;;;;;;10.64;68.04;101421.63;5014859;28;20047;-27
2022/04/21 00:10:04;;;;;;;16.60;9.70;;;;;;;10.60;67.99;101412.19;5038856;28;20479;-28
2022/04/21 00:12:29;;;;;;;19.25;10.82;;;;;;;10.55;68.36;101413.53;5034109;28;20031;-28
2022/04/21 00:14:54;;;;;;;17.45;9.90;;;;;;;10.57;68.20;101409.84;5033243;28;20017;-27
2022/04/21 00:17:20;;;;;;;19.38;9.77;;;;;;;10.52;68.03;101410.34;5039700;28;20037;-28
2022/04/21 00:19:45;;;;;;;20.75;10.18;;;;;;;10.47;68.20;101405.47;5033122;28;20048;-26
2022/04/21 00:24:55;;;;;;;16.83;9.95;;;;;;;10.48;67.96;101406.31;5039359;28;20107;-28
2022/04/21 00:27:20;;;;;;;19.33;10.15;;;;;;;10.47;67.96;101401.94;5046668;28;20528;-30
2022/04/21 00:29:45;;;;;;;17.52;10.20;;;;;;;10.42;67.70;101404.28;5031606;28;20460;-28
2022/04/21 00:32:11;;;;;;;16.55;9.57;;;;;;;10.37;68.28;101398.56;5035375;28;20021;-29
2022/04/21 00:34:37;;;;;;;27.73;9.88;;;;;;;10.34;68.11;101399.72;5032430;28;20060;-28
2022/04/21 00:37:03;;;;;;;19.83;10.27;;;;;;;10.31;68.09;101400.91;5032893;28;20025;-28
2022/04/21 00:39:31;;;;;;;17.63;10.15;;;;;;;10.30;68.36;101407.31;5035163;28;20380;-29
2022/04/21 00:41:57;;;;;;;22.02;10.25;;;;;;;10.30;68.34;101407.31;5039041;28;20078;-28
2022/04/21 00:44:23;;;;;;;22.65;10.05;;;;;;;10.28;68.21;101406.63;5034813;28;20037;-30
2022/04/21 00:46:48;;;;;;;15.43;10.05;;;;;;;10.22;68.14;101403.75;5032491;28;20029;-28
2022/04/21 00:49:14;;;;;;;15.63;9.35;;;;;;;10.21;68.03;101394.81;5035501;28;20025;-28
2022/04/21 00:51:40;;;;;;;21.35;10.48;;;;;;;10.14;68.33;101398.31;5030673;28;20044;-28
2022/04/21 00:54:06;;;;;;;15.60;10.07;;;;;;;10.15;68.42;101400.84;5031733;28;20029;-28
2022/04/21 00:56:31;;;;;;;18.67;10.45;;;;;;;10.10;68.41;101397.81;5034027;28;20029;-28
2022/04/21 00:58:57;;;;;;;18.83;10.00;;;;;;;10.04;68.30;101393.09;5033248;28;20106;-28
2022/04/21 01:04:07;;;;;;;18.63;9.93;;;;;;;9.98;68.80;101394.63;5032947;28;20075;-28
2022/04/21 01:06:33;;;;;;;18.10;10.95;;;;;;;9.95;68.76;101391.41;5035737;28;20059;-28
2022/04/21 01:08:58;;;;;;;25.15;10.82;;;;;;;9.91;69.12;101392.75;5042199;28;20114;-30
2022/04/21 01:11:24;;;;;;;17.85;10.43;;;;;;;9.81;69.33;101393.72;5047846;28;20016;-28
2022/04/21 01:13:49;;;;;;;19.05;10.38;;;;;;;9.85;69.09;101389.69;5048495;28;20040;-28
2022/04/21 01:16:14;;;;;;;21.25;10.57;;;;;;;9.87;69.15;101387.69;5047396;28;20035;-28
2022/04/21 01:18:41;;;;;;;17.00;9.57;;;;;;;9.80;69.34;101386.66;5047840;28;20043;-28
2022/04/21 01:21:06;;;;;;;19.55;10.35;;;;;;;9.76;69.41;101395.22;5049293;28;20039;-28
2022/04/21 01:23:34;;;;;;;24.15;9.88;;;;;;;9.78;69.46;101388.66;5049770;28;20025;-27
2022/04/21 01:26:01;;;;;;;16.73;9.82;;;;;;;9.77;69.39;101392.38;5049644;28;20439;-29
2022/04/21 01:28:27;;;;;;;18.00;9.80;;;;;;;9.75;69.14;101391.69;5049395;28;20051;-28
2022/04/21 01:30:56;;;;;;;14.70;9.63;;;;;;;9.75;68.98;101391.69;5048357;28;20021;-28
2022/04/21 01:33:22;;;;;;;16.38;9.32;;;;;;;9.72;69.05;101389.31;5049154;28;20434;-28
2022/04/21 01:35:47;;;;;;;17.20;9.25;;;;;;;9.68;69.12;101387.97;5049095;28;20072;-29
2022/04/21 01:41:09;;;;;;;16.02;8.27;;;;;;;9.64;69.17;101389.31;5049808;28;20039;-29
2022/04/21 01:43:35;;;;;;;16.33;9.52;;;;;;;9.59;69.23;101394.31;5049796;28;20033;-29
2022/04/21 01:46:00;;;;;;;17.60;9.70;;;;;;;9.59;69.09;101383.56;5049475;28;20133;-28
2022/04/21 01:48:27;;;;;;;16.77;9.63;;;;;;;9.54;69.33;101388.59;5049438;28;20108;-28
2022/04/21 01:50:52;;;;;;;18.45;9.43;;;;;;;9.49;69.55;101382.84;5045674;28;20033;-27
2022/04/21 01:53:17;;;;;;;19.33;9.88;;;;;;;9.45;69.52;101379.63;5051655;28;20044;-27
2022/04/21 01:55:43;;;;;;;16.05;8.98;;;;;;;9.48;69.19;101382.03;5053932;28;20028;-27
2022/04/21 01:58:08;;;;;;;18.13;8.93;;;;;;;9.43;69.37;101377.13;5051360;28;20035;-28
2022/04/21 02:00:34;;;;;;;19.67;10.27;;;;;;;9.43;69.41;101369.06;5051983;28;20727;-27
2022/04/21 02:02:59;;;;;;;17.77;9.27;;;;;;;9.41;69.47;101372.91;5051980;28;20060;-27
2022/04/21 02:05:25;;;;;;;15.07;9.55;;;;;;;9.41;69.45;101379.13;5053381;28;20029;-28
2022/04/21 02:07:50;;;;;;;15.48;9.57;;;;;;;9.40;69.26;101377.44;5052040;28;20036;-27
2022/04/21 02:10:17;;;;;;;15.45;9.02;;;;;;;9.37;69.53;101375.09;5053495;28;20387;-27
2022/04/21 02:12:43;;;;;;;15.52;9.68;;;;;;;9.37;69.54;101376.91;5052722;28;20106;-28
2022/04/21 02:15:09;;;;;;;15.77;9.50;;;;;;;9.37;69.76;101375.09;5052680;28;20479;-28
2022/04/21 02:17:35;;;;;;;17.23;9.20;;;;;;;9.36;69.66;101370.69;5051534;28;20033;-30
2022/04/21 02:20:01;;;;;;;16.60;8.95;;;;;;;9.35;69.41;101374.41;5052793;28;20450;-27
2022/04/21 02:22:27;;;;;;;13.77;8.70;;;;;;;9.32;69.44;101369.38;5053333;28;20461;-27
2022/04/21 02:24:52;;;;;;;18.23;9.25;;;;;;;9.29;69.45;101363.44;5053061;28;20063;-26
2022/04/21 02:27:17;;;;;;;17.05;9.35;;;;;;;9.27;69.38;101366.31;5052854;28;20411;-29
2022/04/21 02:29:43;;;;;;;16.77;9.63;;;;;;;9.25;69.75;101368.31;5038009;28;20021;-27
2022/04/21 02:32:08;;;;;;;16.50;8.95;;;;;;;9.21;69.55;101366.94;5051954;28;20155;-27
2022/04/21 02:34:34;;;;;;;16.00;8.85;;;;;;;9.17;69.76;101360.22;5109893;22;20063;-83
2022/04/21 02:37:00;;;;;;;17.55;8.93;;;;;;;9.14;69.92;101372.13;5092285;28;20040;-83
2022/04/21 02:39:25;;;;;;;15.85;9.23;;;;;;;9.11;70.03;101372.44;5076525;28;20044;-82
2022/04/21 02:41:50;;;;;;;15.93;8.68;;;;;;;9.02;70.07;101368.84;5090551;28;20032;-81
2022/04/21 02:44:16;;;;;;;22.10;9.05;;;;;;;9.00;70.76;101362.81;5080354;28;20020;-82
2022/04/21 02:46:41;;;;;;;17.65;8.95;;;;;;;9.03;70.34;101361.66;5083831;28;20055;-83
2022/04/21 02:49:06;;;;;;;18.55;9.10;;;;;;;9.07;70.51;101370.22;5086421;28;20052;-82
2022/04/21 02:51:33;;;;;;;17.42;8.82;;;;;;;8.99;70.40;101361.13;5084161;28;20029;-82
2022/04/21 02:59:27;;;;;;;15.00;8.55;;;;;;;8.97;70.49;101357.75;5079031;28;20111;-82
2022/04/21 03:01:52;;;;;;;15.20;8.77;;;;;;;8.97;70.36;101357.75;5078530;28;20527;-83
2022/04/21 03:04:17;;;;;;;12.82;8.73;;;;;;;8.90;70.23;101362.09;5077582;28;20028;-79
2022/04/21 03:06:43;;;;;;;14.80;8.30;;;;;;;8.92;70.47;101367.28;5076059;28;20111;-81
2022/04/21 03:09:08;;;;;;;20.13;8.88;;;;;;;8.85;70.83;101363.56;5074228;28;20425;-80
2022/04/21 03:11:34;;;;;;;15.25;9.15;;;;;;;8.86;70.56;101366.06;5074775;28;20529;-81
2022/04/21 03:13:59;;;;;;;17.33;9.25;;;;;;;8.83;70.85;101371.75;5075974;28;20029;-81
2022/04/21 03:16:25;;;;;;;16.95;8.18;;;;;;;8.85;70.76;101367.06;5074714;28;20032;-80
2022/04/21 03:18:50;;;;;;;16.33;8.57;;;;;;;8.79;70.79;101355.13;5074833;28;20020;-81
2022/04/21 03:26:43;;;;;;;12.48;8.80;;;;;;;8.73;71.21;101355.75;5074053;28;20051;-80
2022/04/21 03:29:08;;;;;;;14.40;8.02;;;;;;;8.73;71.03;101357.59;5070044;28;20526;-86
2022/04/21 03:31:34;;;;;;;17.02;8.35;;;;;;;8.71;71.06;101357.72;5081498;28;20027;-84
2022/04/21 03:33:59;;;;;;;14.60;8.27;;;;;;;8.74;70.79;101357.44;5064088;28;20060;-82
2022/04/21 03:36:24;;;;;;;16.17;7.55;;;;;;;8.75;70.70;101358.28;5064142;28;20093;-86
2022/04/21 03:38:50;;;;;;;15.55;8.73;;;;;;;8.75;70.95;101360.97;5072365;28;20385;-83
2022/04/21 03:41:15;;;;;;;16.83;8.20;;;;;;;8.75;70.72;101360.97;5055470;28;20100;-84
2022/04/21 03:43:40;;;;;;;13.30;7.93;;;;;;;8.72;71.10;101363.97;5052649;28;20040;-84
2022/04/21 03:46:06;;;;;;;14.43;8.40;;;;;;;8.73;70.95;101362.97;5034951;28;20017;-84
2022/04/21 03:48:31;;;;;;;15.80;8.23;;;;;;;8.75;70.70;101369.03;5050798;28;20425;-84
2022/04/21 03:50:56;;;;;;;26.90;9.63;;;;;;;8.75;70.47;101360.97;5054685;28;20585;-84
2022/04/21 03:53:22;;;;;;;17.50;7.85;;;;;;;8.69;70.92;101358.88;5053360;28;20031;-83
2022/04/21 03:55:47;;;;;;;13.93;7.90;;;;;;;8.72;70.68;101358.59;5052493;28;20033;-84
2022/04/21 03:58:12;;;;;;;15.38;8.05;;;;;;;8.69;70.65;101356.22;5053910;28;20025;-84
2022/04/21 04:00:38;;;;;;;20.42;8.57;;;;;;;8.70;70.69;101365.97;5051871;28;20384;-81
2022/04/21 04:03:03;;;;;;;13.55;7.88;;;;;;;8.71;70.56;101362.25;5044913;28;20489;-83
2022/04/21 04:05:29;;;;;;;17.02;8.05;;;;;;;8.71;70.43;101362.25;5049970;28;20090;-80
2022/04/21 04:10:53;;;;;;;10.40;7.28;;;;;;;8.70;70.50;101365.97;5052520;28;20048;-82
2022/04/21 04:13:22;;;;;;;19.65;8.40;;;;;;;8.71;70.34;101354.22;5052654;28;20028;-82
2022/04/21 04:15:49;;;;;;;14.38;8.20;;;;;;;8.74;70.77;101356.59;5043322;28;20065;-83
2022/04/21 04:18:18;;;;;;;14.60;8.10;;;;;;;8.72;70.32;101359.44;5057123;28;20423;-86
2022/04/21 04:20:43;;;;;;;14.45;7.50;;;;;;;8.77;70.41;101356.28;5055861;28;20052;-85
2022/04/21 04:23:09;;;;;;;14.18;7.93;;;;;;;8.83;69.97;101355.66;5052585;28;20032;-81
2022/04/21 04:25:35;;;;;;;14.35;7.75;;;;;;;8.82;70.01;101355.78;5052019;28;20512;-82
2022/04/21 04:28:03;;;;;;;17.40;8.35;;;;;;;8.84;69.90;101362.69;5053042;28;20029;-80
2022/04/21 04:30:28;;;;;;;15.77;7.72;;;;;;;8.82;70.16;101353.97;5049721;28;20079;-84
2022/04/21 04:32:54;;;;;;;12.25;7.60;;;;;;;8.84;70.05;101364.53;5053653;28;20131;-84
2022/04/21 04:35:19;;;;;;;13.93;8.20;;;;;;;8.83;69.93;101362.88;5067398;28;20047;-81
2022/04/21 04:37:44;;;;;;;14.07;7.97;;;;;;;8.79;69.99;101365.00;5052878;28;20021;-80
2022/04/21 04:40:10;;;;;;;14.40;7.43;;;;;;;8.82;70.08;101364.72;5052074;28;20029;-83
2022/04/21 04:42:35;;;;;;;13.32;7.80;;;;;;;8.83;70.03;101361.03;5042959;28;20037;-80
2022/04/21 04:47:45;;;;;;;11.90;7.53;;;;;;;8.87;69.33;101365.06;5047676;28;20048;-82
2022/04/21 04:50:10;;;;;;;14.85;7.75;;;;;;;8.82;69.44;101364.72;5035165;28;20034;-81
2022/04/21 04:52:36;;;;;;;17.08;8.05;;;;;;;8.84;69.49;101367.22;5037481;28;20026;-80
2022/04/21 04:55:02;;;;;;;15.10;9.02;;;;;;;8.86;69.55;101366.06;5050161;28;20025;-83
2022/04/21 04:57:27;;;;;;;15.60;8.00;;;;;;;8.83;69.92;101360.19;5049933;28;20079;-82
2022/04/21 04:59:53;;;;;;;14.15;7.72;;;;;;;8.91;69.34;101368.28;5050250;28;20049;-82
2022/04/21 05:02:20;;;;;;;14.45;8.63;;;;;;;8.89;69.38;101365.75;5051086;28;20025;-80
2022/04/21 05:04:47;;;;;;;15.30;8.07;;;;;;;8.91;69.58;101368.28;5050498;28;20024;-82
2022/04/21 05:07:13;;;;;;;12.55;7.35;;;;;;;8.94;69.33;101371.47;5051764;28;20048;-80
2022/04/21 05:09:38;;;;;;;13.88;7.47;;;;;;;8.96;69.35;101372.19;5051399;28;20036;-81
2022/04/21 05:12:04;;;;;;;15.82;7.90;;;;;;;9.00;69.03;101365.50;5051314;28;20028;-80
2022/04/21 05:14:29;;;;;;;15.57;7.80;;;;;;;9.05;68.97;101369.53;5051004;28;20329;-81
2022/04/21 05:16:55;;;;;;;14.88;7.38;;;;;;;9.05;68.84;101365.00;5051667;28;20017;-82
2022/04/21 05:19:21;;;;;;;17.20;8.20;;;;;;;9.13;68.81;101373.09;5052758;28;20089;-83
2022/04/21 05:21:47;;;;;;;12.50;7.57;;;;;;;9.20;68.83;101367.94;5051832;28;20098;-84
2022/04/21 05:24:13;;;;;;;14.88;8.25;;;;;;;9.26;68.61;101364.59;5054084;28;20021;-83
2022/04/21 05:26:40;;;;;;;13.68;7.80;;;;;;;9.31;67.93;101367.66;5053782;28;20029;-83
2022/04/21 05:30:55;;;;;;;10.80;7.28;;;;;;;9.34;67.92;101366.50;5054805;28;20063;-82
2022/04/21 05:31:58;;;;;;;15.50;7.93;;;;;;;9.40;67.82;101372.06;5055307;28;20061;-82
2022/04/21 05:34:24;;;;;;;14.57;7.85;;;;;;;9.48;67.77;101373.09;5060066;28;20060;-84
2022/04/21 05:36:49;;;;;;;13.63;7.22;;;;;;;9.56;67.26;101375.84;5059292;28;20025;-80
2022/04/21 05:39:15;;;;;;;13.82;7.20;;;;;;;9.77;66.82;101370.88;5054886;28;20493;-83
2022/04/21 05:41:43;;;;;;;10.55;7.28;;;;;;;10.16;65.79;101380.19;5060705;28;20446;-83
2022/04/21 05:44:10;;;;;;;12.23;7.63;;;;;;;10.59;64.87;101376.38;5057555;28;20102;-82
2022/04/21 05:46:35;;;;;;;13.68;7.30;;;;;;;11.36;62.25;101379.41;5051632;28;20037;-82
2022/04/21 05:49:06;;;;;;;17.75;8.57;;;;;;;12.11;59.56;101375.34;5053331;28;20499;-83
2022/04/21 05:51:32;;;;;;;15.68;6.50;;;;;;;12.86;56.66;101379.97;5053011;28;20045;-82
2022/04/21 05:53:58;;;;;;;11.85;6.90;;;;;;;13.45;55.19;101384.56;5051441;28;20411;-82
2022/04/21 05:56:24;;;;;;;11.68;6.80;;;;;;;13.79;53.05;101378.56;5052709;28;20025;-83
2022/04/21 05:58:50;;;;;;;13.25;6.97;;;;;;;14.17;52.27;101381.06;5052792;28;20049;-84
2022/04/21 06:01:15;;;;;;;12.27;6.43;;;;;;;14.64;51.13;101374.25;5051751;28;20342;-82
2022/04/21 06:03:41;;;;;;;16.50;6.65;;;;;;;15.01;49.04;101368.66;5052164;28;20215;-83
2022/04/21 06:06:09;;;;;;;14.75;6.50;;;;;;;15.21;48.62;101372.34;5052071;28;20531;-83
2022/04/21 06:08:34;;;;;;;9.57;6.53;;;;;;;15.08;48.44;101374.97;5053684;28;20025;-85
2022/04/21 06:11:00;;;;;;;12.80;6.75;;;;;;;15.21;48.70;101377.78;5057860;28;20117;-83
2022/04/21 06:13:25;;;;;;;11.15;6.45;;;;;;;15.48;47.96;101377.91;5058805;28;20551;-82
2022/04/21 06:15:51;;;;;;;11.90;6.82;;;;;;;15.41;47.64;101388.75;5059047;28;20032;-80
2022/04/21 06:18:16;;;;;;;14.27;6.95;;;;;;;15.20;48.39;101391.53;5064793;28;20021;-80
2022/04/21 06:20:42;;;;;;;10.75;6.60;;;;;;;15.34;48.70;101382.44;5061162;28;20025;-81
2022/04/21 06:23:07;;;;;;;8.63;6.40;;;;;;;15.70;47.68;101389.53;5058425;28;20067;-82
2022/04/21 06:25:33;;;;;;;16.38;7.60;;;;;;;15.82;47.48;101395.22;5062270;28;20025;-80
2022/04/21 06:27:58;;;;;;;11.05;6.75;;;;;;;15.95;46.81;101378.97;5061432;28;20084;-81
2022/04/21 06:30:24;;;;;;;15.23;7.68;;;;;;;16.07;47.02;101374.63;5064755;28;20052;-82
2022/04/21 06:32:49;;;;;;;23.35;7.10;;;;;;;16.12;46.52;101369.41;5062864;28;20131;-81
2022/04/21 06:35:15;;;;;;;11.77;6.68;;;;;;;16.66;45.67;101383.88;5063888;28;20045;-81
2022/04/21 06:37:42;;;;;;;14.98;7.65;;;;;;;17.03;44.72;101384.31;5060331;28;20039;-81
2022/04/21 06:40:08;;;;;;;16.48;7.15;;;;;;;17.46;43.41;101373.75;5064681;28;20059;-83
2022/04/21 06:42:35;;;;;;;14.40;6.60;;;;;;;17.51;43.13;101381.28;5067021;28;20033;-81
2022/04/21 06:48:03;;;;;;;10.90;7.10;;;;;;;17.51;43.42;101367.69;5063516;28;20040;-82
2022/04/21 06:50:40;;;;;;;10.38;6.47;;;;;;;17.82;41.81;101366.09;5066460;28;20020;-80
2022/04/21 06:53:09;;;;;;;13.52;6.75;;;;;;;18.18;41.14;101373.63;5072855;28;20068;-82
2022/04/21 06:55:35;;;;;;;14.23;6.72;;;;;;;18.74;40.36;101366.50;5065162;28;20028;-81
2022/04/21 06:58:01;;;;;;;17.05;7.47;;;;;;;19.04;39.63;101372.97;5058646;28;20075;-81
2022/04/21 07:00:27;;;;;;;12.63;6.50;;;;;;;19.77;38.52;101371.31;5062750;28;20028;-81
2022/04/21 07:02:55;;;;;;;14.45;7.05;;;;;;;19.85;38.03;101373.75;5068766;28;20025;-82
2022/04/21 07:05:22;;;;;;;13.23;7.18;;;;;;;19.74;38.15;101367.13;5069083;28;20031;-80
2022/04/21 07:07:48;;;;;;;11.77;7.25;;;;;;;19.83;37.80;101373.13;5062870;28;20032;-81
2022/04/21 07:10:14;;;;;;;10.00;7.03;;;;;;;19.85;37.63;101379.22;5063586;28;20105;-80
2022/04/21 07:12:39;;;;;;;15.93;6.88;;;;;;;19.88;37.63;101372.41;5061053;28;20029;-80
2022/04/21 07:15:09;;;;;;;12.63;7.05;;;;;;;19.94;37.49;101366.88;5056507;28;20043;-81
2022/04/21 07:17:36;;;;;;;11.65;6.63;;;;;;;20.66;35.92;101367.91;5060210;28;20120;-80
2022/04/21 07:20:02;;;;;;;10.75;6.82;;;;;;;21.12;34.89;101372.56;5068213;28;20013;-80
2022/04/21 07:22:28;;;;;;;12.93;6.90;;;;;;;20.65;35.67;101377.22;5068068;28;20033;-81
2022/04/21 07:24:54;;;;;;;12.05;7.47;;;;;;;20.64;36.32;101379.09;5067670;28;20023;-79
2022/04/21 07:27:20;;;;;;;12.05;7.07;;;;;;;20.55;36.26;101377.78;5067465;28;20033;-81
2022/04/21 07:29:46;;;;;;;13.45;6.93;;;;;;;20.44;36.36;101375.84;5062173;28;20064;-81
2022/04/21 07:32:11;;;;;;;14.25;7.05;;;;;;;20.46;36.06;101379.13;5069274;28;20013;-81
2022/04/21 07:34:37;;;;;;;13.48;6.93;;;;;;;20.52;36.11;101367.28;5063380;28;20049;-80
2022/04/21 07:37:04;;;;;;;11.88;6.65;;;;;;;20.50;36.12;101378.44;5065516;28;20029;-82
2022/04/21 07:39:29;;;;;;;12.52;7.15;;;;;;;20.54;36.02;101374.22;5065014;28;20037;-82
2022/04/21 07:41:56;;;;;;;13.57;7.45;;;;;;;20.75;35.59;101383.75;5061365;28;20025;-81
2022/04/21 07:44:22;;;;;;;;;;;;;;;21.22;35.38;101371.94;5063825;28;20480;-82
2022/04/21 07:46:47;;;;;;;12.52;7.00;;;;;;;21.36;34.97;101372.53;5059924;28;19960;-82
2022/04/21 07:53:13;;;;;;;13.93;6.50;;;;;;;22.55;33.32;101374.59;5062100;28;20043;-80
2022/04/21 07:54:43;;;;;;;10.85;6.30;;;;;;;23.17;32.38;101370.88;5060125;28;20041;-82
2022/04/21 07:57:08;;;;;;;13.88;7.32;;;;;;;23.45;32.08;101362.47;5058926;28;20051;-81
2022/04/21 07:59:34;;;;;;;12.55;6.40;;;;;;;23.42;31.53;101367.66;5059341;28;20029;-81
2022/04/21 08:02:00;;;;;;;12.68;7.10;;;;;;;23.65;31.93;101366.59;5065359;28;20029;-81
2022/04/21 08:04:25;;;;;;;11.85;6.70;;;;;;;24.22;29.87;101365.28;5066551;28;20112;-81
2022/04/21 08:06:51;;;;;;;13.05;6.45;;;;;;;24.14;29.86;101363.84;5067751;28;20032;-82
2022/04/21 08:09:16;;;;;;;14.32;7.05;;;;;;;24.00;30.55;101360.69;5069966;28;20357;-81
2022/04/21 08:11:41;;;;;;;11.65;7.10;;;;;;;24.55;29.21;101368.91;5070585;28;20016;-81
2022/04/21 08:14:07;;;;;;;12.88;6.85;;;;;;;24.19;29.39;101372.13;5071103;28;20032;-82
2022/04/21 08:16:33;;;;;;;15.75;6.68;;;;;;;24.16;30.57;101378.16;5067277;28;20136;-82
2022/04/21 08:19:00;;;;;;;13.10;6.93;;;;;;;24.32;30.38;101382.72;5066833;28;20021;-82
2022/04/21 08:21:25;;;;;;;17.65;6.78;;;;;;;24.18;29.54;101378.72;5071423;28;20100;-80
2022/04/21 08:23:51;;;;;;;16.85;6.70;;;;;;;23.58;29.86;101382.44;5074220;28;20034;-80
2022/04/21 08:34:30;;;;;;;12.60;7.45;;;;;;;22.40;32.85;101383.38;5068172;28;20092;-81
2022/04/21 08:36:55;;;;;;;22.57;7.43;;;;;;;22.54;33.00;101379.25;5067076;28;20029;-81
2022/04/21 08:39:21;;;;;;;14.30;6.97;;;;;;;22.58;33.10;101380.41;5063517;28;20343;-80
2022/04/21 08:41:47;;;;;;;15.57;7.07;;;;;;;23.08;32.49;101377.91;5061606;28;20033;-81
2022/04/21 08:44:17;;;;;;;17.40;7.03;;;;;;;23.57;30.83;101378.03;5067131;28;20364;-81
2022/04/21 08:46:43;;;;;;;16.17;6.43;;;;;;;23.62;30.92;101378.09;5057402;28;20492;-81
2022/04/21 08:49:10;;;;;;;12.30;5.95;;;;;;;24.26;29.41;101378.25;5061021;28;20068;-79
2022/04/21 08:51:35;;;;;;;16.70;6.93;;;;;;;23.97;29.36;101382.38;5065839;28;20025;-82
2022/04/21 08:54:02;;;;;;;17.38;7.13;;;;;;;23.14;29.73;101374.16;5065538;28;20085;-82
2022/04/21 08:56:28;;;;;;;19.60;7.35;;;;;;;22.66;30.80;101392.06;5065082;28;20479;-80
2022/04/21 08:58:54;;;;;;;19.65;7.82;;;;;;;22.20;31.92;101378.38;5065522;28;20027;-80
2022/04/21 09:01:19;;;;;;;10.20;6.85;;;;;;;22.03;32.83;101372.81;5065209;28;20017;-81
2022/04/21 09:03:46;;;;;;;12.00;6.60;;;;;;;22.23;33.16;101374.31;5067310;28;20053;-82
2022/04/21 09:06:12;;;;;;;11.23;6.35;;;;;;;22.65;32.24;101368.44;5067986;28;20099;-81
2022/04/21 09:08:37;;;;;;;11.32;6.57;;;;;;;22.78;32.18;101368.13;5066184;28;20021;-82
2022/04/21 09:11:07;;;;;;;11.27;6.80;;;;;;;23.03;31.36;101364.13;5071012;28;20025;-83
2022/04/21 09:13:44;;;;;;;10.95;6.53;;;;;;;23.20;31.64;101365.75;5063782;28;20060;-81
2022/04/21 09:16:11;;;;;;;10.52;6.55;;;;;;;23.41;31.45;101366.03;5065951;28;20020;-81
2022/04/21 09:18:36;;;;;;;10.07;6.00;;;;;;;23.77;30.38;101367.28;5067651;28;20028;-82
2022/04/21 09:21:10;;;;;;;10.38;5.53;;;;;;;24.04;29.85;101363.72;5069870;28;20028;-81
2022/04/21 09:23:35;;;;;;;13.00;5.43;;;;;;;23.69;30.64;101361.41;5067676;28;20032;-80
2022/04/21 09:26:18;;;;;;;10.60;6.00;;;;;;;23.13;30.59;101380.72;5066234;28;20025;-80
2022/04/21 09:28:52;;;;;;;11.35;5.57;;;;;;;22.75;31.69;101368.63;5066982;28;20028;-81
2022/04/21 09:31:18;;;;;;;11.45;5.78;;;;;;;22.95;32.53;101355.19;5063044;28;20135;-79
2022/04/21 09:33:46;;;;;;;12.77;6.28;;;;;;;23.32;31.47;101367.53;5062464;28;20132;-80
2022/04/21 09:36:12;;;;;;;7.95;5.07;;;;;;;23.18;30.62;101367.91;5049370;28;20412;-81
2022/04/21 09:38:37;;;;;;;9.45;6.00;;;;;;;22.77;30.81;101367.25;5064044;28;20033;-82
2022/04/21 09:41:11;;;;;;;10.48;5.90;;;;;;;22.64;32.23;101361.28;5061184;28;20032;-82
2022/04/21 09:43:37;;;;;;;10.82;5.50;;;;;;;22.65;31.05;101357.47;5060846;28;20039;-81
2022/04/21 09:46:12;;;;;;;8.70;6.07;;;;;;;22.79;31.20;101350.56;5060240;28;20032;-81
2022/04/21 09:48:37;;;;;;;12.88;6.20;;;;;;;22.97;31.73;101347.56;5059010;28;20032;-82
2022/04/21 09:51:17;;;;;;;11.13;6.03;;;;;;;23.07;30.70;101357.03;5055470;28;20113;-85
2022/04/21 09:54:03;;;;;;;9.18;5.45;;;;;;;22.98;30.26;101351.13;5056722;28;20037;-81
2022/04/21 09:56:40;;;;;;;9.38;5.28;;;;;;;23.67;28.62;101350.66;5057365;28;20025;-81
2022/04/21 09:59:08;;;;;;;13.57;5.30;;;;;;;23.59;28.18;101345.63;5062771;28;20037;-82
2022/04/21 10:01:37;;;;;;;9.80;5.20;;;;;;;23.30;28.75;101342.22;5064302;28;20055;-81
2022/04/21 10:04:06;;;;;;;9.05;4.60;;;;;;;23.17;28.07;101337.94;5059355;28;20531;-81
2022/04/21 10:06:31;;;;;;;10.85;5.38;;;;;;;23.05;28.76;101331.75;5059094;28;20024;-82
2022/04/21 10:08:56;;;;;;;8.68;5.20;;;;;;;23.42;29.86;101335.53;5058856;28;20021;-80
2022/04/21 10:11:25;;;;;;;13.43;5.47;;;;;;;23.41;29.50;101325.63;5060846;28;20055;-80
2022/04/21 10:13:54;;;;;;;11.57;6.00;;;;;;;23.32;30.82;101335.41;5060190;28;20108;-81
2022/04/21 10:16:21;;;;;;;16.00;7.28;;;;;;;23.12;31.24;101325.00;5072893;28;20048;-80
2022/04/21 10:18:50;;;;;;;19.08;7.63;;;;;;;22.77;30.98;101325.28;5072165;28;20029;-83
2022/04/21 10:21:38;;;;;;;14.40;6.90;;;;;;;22.86;31.68;101326.53;5072999;28;20009;-81
2022/04/21 10:24:04;;;;;;;16.25;7.28;;;;;;;22.87;30.62;101317.19;5068966;28;20040;-82
2022/04/21 10:26:41;;;;;;;10.02;6.13;;;;;;;23.28;31.24;101309.56;5065706;28;20029;-81
2022/04/21 10:29:12;;;;;;;14.73;6.47;;;;;;;24.18;29.77;101320.16;5066785;28;20005;-81
2022/04/21 10:31:59;;;;;;;13.70;7.15;;;;;;;24.05;28.97;101313.97;5069603;28;20036;-82
2022/04/21 10:34:32;;;;;;;14.40;6.63;;;;;;;24.15;29.25;101305.00;5065346;28;20079;-81
2022/04/21 10:37:06;;;;;;;14.43;7.43;;;;;;;24.16;29.00;101309.41;5071434;28;20048;-82
2022/04/21 10:39:32;;;;;;;12.40;6.35;;;;;;;23.53;30.08;101292.53;5066030;28;20025;-80
2022/04/21 10:42:14;;;;;;;8.25;4.60;;;;;;;23.48;26.89;101299.88;5068470;28;20044;-82
2022/04/21 10:44:46;;;;;;;9.48;4.15;;;;;;;23.56;26.35;101282.94;5066353;28;20392;-81
2022/04/21 10:47:33;;;;;;;12.15;5.53;;;;;;;23.70;27.70;101284.22;5072079;28;20021;-80
2022/04/21 10:50:10;;;;;;;18.15;5.85;;;;;;;23.27;28.42;101290.56;5070579;28;20025;-82
2022/04/21 10:57:46;;;;;;;8.73;5.60;;;;;;;22.97;28.84;101281.69;5062679;28;20071;-80
2022/04/21 11:00:30;;;;;;;10.10;5.63;;;;;;;23.31;27.16;101289.81;5065980;28;20025;-80
2022/04/21 11:03:06;;;;;;;10.25;4.82;;;;;;;22.98;27.19;101283.34;5051078;28;20029;-80
2022/04/21 11:05:33;;;;;;;7.65;4.95;;;;;;;22.65;26.85;101286.16;5065171;28;20332;-80
2022/04/21 11:08:00;;;;;;;8.05;4.97;;;;;;;22.27;27.07;101285.00;5068833;28;20104;-81
2022/04/21 11:10:37;;;;;;;12.27;5.28;;;;;;;22.50;27.29;101284.81;5068079;28;20106;-81
2022/04/21 11:13:03;;;;;;;;;;;;;;;23.09;26.63;101280.72;5062163;28;20351;-81
2022/04/21 11:15:36;;;;;;;12.38;5.18;;;;;;;23.29;26.67;101278.25;5064669;28;19944;-80
2022/04/21 11:18:12;;;;;;;8.63;5.13;;;;;;;23.10;26.24;101274.16;5069105;28;20029;-81
2022/04/21 11:20:42;;;;;;;7.97;4.45;;;;;;;22.92;26.07;101270.59;5071237;28;20029;-82
2022/04/21 11:23:21;;;;;;;9.95;4.60;;;;;;;23.14;25.46;101272.56;5073401;28;20025;-82
2022/04/21 11:25:47;;;;;;;9.57;5.03;;;;;;;22.62;25.83;101275.66;5068051;28;20048;-81
2022/04/21 11:28:13;;;;;;;8.07;4.45;;;;;;;22.75;25.98;101267.09;5059242;28;20068;-80
2022/04/21 11:30:38;;;;;;;7.30;4.13;;;;;;;23.00;25.30;101275.69;5062819;28;20079;-82
2022/04/21 11:33:10;;;;;;;7.70;4.65;;;;;;;22.78;25.96;101253.69;5065659;28;20036;-81
2022/04/21 11:35:35;;;;;;;7.88;4.50;;;;;;;22.63;26.68;101271.84;5065416;28;20037;-82
2022/04/21 11:38:01;;;;;;;11.57;4.75;;;;;;;22.63;26.51;101271.84;5065553;28;20081;-81
2022/04/21 11:40:34;;;;;;;7.88;4.97;;;;;;;22.84;26.98;101243.59;5064584;28;20049;-80
2022/04/21 11:43:17;;;;;;;13.00;4.60;;;;;;;23.10;26.25;101265.94;5066916;28;20444;-80
2022/04/21 11:45:57;;;;;;;12.35;4.70;;;;;;;23.38;25.80;101251.13;5067417;28;20087;-80
2022/04/21 11:48:28;;;;;;;7.05;4.15;;;;;;;23.37;25.67;101253.06;5067129;28;20013;-80
2022/04/21 11:50:53;;;;;;;12.00;4.80;;;;;;;23.80;25.96;101251.38;5067500;28;20120;-81
2022/04/21 11:53:19;;;;;;;7.78;4.32;;;;;;;24.08;25.02;101249.38;5064117;28;20029;-81
2022/04/21 11:55:45;;;;;;;12.13;4.85;;;;;;;24.23;24.15;101249.50;5061858;28;20077;-81
2022/04/21 11:58:11;;;;;;;6.93;4.13;;;;;;;24.36;24.34;101244.66;5065673;28;20064;-81
2022/04/21 12:06:29;;;;;;;9.25;3.63;;;;;;;23.54;24.05;101239.25;5068754;28;20071;-81
2022/04/21 12:08:54;;;;;;;5.53;3.60;;;;;;;23.38;24.03;101237.41;5067475;28;20025;-80
2022/04/21 12:11:21;;;;;;;15.50;3.63;;;;;;;22.83;24.68;101233.72;5066927;28;20089;-80